createdAt,value
2023-04-04T00:00:58.224Z,42.34
2023-04-04T00:03:02.239Z,42.75
2023-04-04T00:05:05.627Z,42.85
2023-04-04T00:07:08.172Z,42.58
2023-04-04T00:09:10.936Z,42.69
2023-04-04T00:11:13.854Z,42.97
2023-04-04T00:13:16.481Z,42.97
2023-04-04T00:15:19.163Z,42.78
2023-04-04T00:17:24.626Z,42.68
2023-04-04T00:19:28.543Z,42.63
2023-04-04T00:21:31.636Z,42.15
2023-04-04T00:23:34.210Z,42.42
2023-04-04T00:25:36.742Z,41.98
2023-04-04T00:27:39.282Z,42.25
2023-04-04T00:29:42.157Z,42.15
2023-04-04T00:31:44.784Z,41.79
2023-04-04T00:33:47.364Z,42.39
2023-04-04T00:35:51.301Z,42.59
2023-04-04T00:37:53.858Z,42.55
2023-04-04T00:39:56.459Z,42.64
2023-04-04T00:41:59.245Z,42.34
2023-04-04T00:44:01.889Z,42.43
2023-04-04T00:46:04.937Z,42.22
2023-04-04T00:48:07.880Z,42.19
2023-04-04T00:50:11.403Z,42.42
2023-04-04T00:52:15.388Z,42.33
2023-04-04T00:54:17.966Z,42.57
2023-04-04T00:56:20.905Z,42.75
2023-04-04T00:58:23.673Z,42.24
2023-04-04T01:00:26.577Z,42.14
2023-04-04T01:02:29.278Z,41.36
2023-04-04T01:04:32.186Z,42.05
2023-04-04T01:06:36.089Z,42.57
2023-04-04T01:08:41.374Z,42.76
2023-04-04T01:10:44.098Z,43.21
2023-04-04T01:12:46.783Z,43.23
2023-04-04T01:14:49.323Z,43.21
2023-04-04T01:16:52.553Z,43.32
2023-04-04T01:18:57.367Z,42.93
2023-04-04T01:21:02.818Z,43.40
2023-04-04T01:23:06.105Z,43.46
2023-04-04T01:25:10.528Z,43.38
2023-04-04T01:27:14.534Z,43.63
2023-04-04T01:29:17.587Z,43.74
2023-04-04T01:31:24.326Z,43.52
2023-04-04T01:33:30.323Z,43.82
2023-04-04T01:35:39.735Z,43.69
2023-04-04T01:37:55.799Z,43.88
2023-04-04T01:40:06.068Z,44.32
2023-04-04T01:42:10.283Z,43.80
2023-04-04T01:44:15.944Z,44.17
2023-04-04T01:46:18.963Z,44.28
2023-04-04T01:48:22.364Z,44.76
2023-04-04T01:50:26.034Z,44.65
2023-04-04T01:52:29.147Z,44.37
2023-04-04T01:54:33.173Z,44.56
2023-04-04T01:56:35.708Z,44.07
2023-04-04T01:58:38.295Z,44.18
2023-04-04T02:00:42.665Z,44.50
2023-04-04T02:02:45.511Z,44.95
2023-04-04T02:04:48.576Z,44.97
2023-04-04T02:06:52.504Z,45.27
2023-04-04T02:08:56.185Z,45.45
2023-04-04T02:10:59.375Z,44.99
2023-04-04T02:13:02.071Z,45.29
2023-04-04T02:15:05.107Z,45.37
2023-04-04T02:17:09.041Z,45.62
2023-04-04T02:19:11.908Z,45.51
2023-04-04T02:21:14.538Z,45.18
2023-04-04T02:23:17.069Z,45.31
2023-04-04T02:25:19.735Z,45.31
2023-04-04T02:27:22.295Z,45.55
2023-04-04T02:29:24.811Z,45.69
2023-04-04T02:31:27.365Z,45.61
2023-04-04T02:33:31.785Z,45.90
2023-04-04T02:35:34.435Z,45.85
2023-04-04T02:37:37.123Z,45.88
2023-04-04T02:39:39.665Z,46.00
2023-04-04T02:41:42.788Z,46.30
2023-04-04T02:43:45.348Z,46.28
2023-04-04T02:45:49.219Z,46.03
2023-04-04T02:47:52.829Z,45.83
2023-04-04T02:49:56.814Z,46.50
2023-04-04T02:51:59.449Z,45.93
2023-04-04T02:54:02.915Z,46.20
2023-04-04T02:56:06.032Z,46.15
2023-04-04T02:58:08.568Z,46.70
2023-04-04T03:00:12.191Z,47.20
2023-04-04T03:02:14.861Z,47.84
2023-04-04T03:04:19.425Z,47.90
2023-04-04T03:06:23.484Z,47.87
2023-04-04T03:08:26.195Z,47.74
2023-04-04T03:10:30.780Z,47.75
2023-04-04T03:12:33.357Z,48.41
2023-04-04T03:14:35.909Z,48.17
2023-04-04T03:16:38.823Z,48.47
2023-04-04T03:18:41.684Z,49.06
2023-04-04T03:20:44.226Z,48.85
2023-04-04T03:22:48.204Z,48.64
2023-04-04T03:24:50.842Z,49.28
2023-04-04T03:26:53.378Z,49.02
2023-04-04T03:28:56.098Z,49.10
2023-04-04T03:30:58.728Z,49.02
2023-04-04T03:33:05.006Z,49.37
2023-04-04T03:35:08.317Z,49.61
2023-04-04T03:37:10.877Z,48.96
2023-04-04T03:39:14.769Z,48.98
2023-04-04T03:41:17.324Z,49.19
2023-04-04T03:43:19.862Z,49.77
2023-04-04T03:45:22.519Z,49.38
2023-04-04T03:47:25.752Z,49.63
2023-04-04T03:49:28.337Z,49.47
2023-04-04T03:51:31.632Z,49.92
2023-04-04T03:53:35.646Z,50.03
2023-04-04T03:55:41.735Z,49.63
2023-04-04T03:57:44.364Z,50.31
2023-04-04T03:59:47.045Z,49.51
2023-04-04T04:01:49.759Z,49.42
2023-04-04T04:03:52.467Z,50.18
2023-04-04T04:05:55.353Z,50.26
2023-04-04T04:07:57.902Z,50.44
2023-04-04T04:10:00.580Z,50.29
2023-04-04T04:12:04.784Z,50.01
2023-04-04T04:14:07.326Z,49.96
2023-04-04T04:16:09.963Z,50.46
2023-04-04T04:18:12.548Z,50.17
2023-04-04T04:20:15.137Z,50.60
2023-04-04T04:22:17.713Z,50.26
2023-04-04T04:24:20.352Z,50.77
2023-04-04T04:26:22.882Z,50.88
2023-04-04T04:28:33.227Z,50.76
2023-04-04T04:30:36.930Z,51.21
2023-04-04T04:32:39.519Z,50.51
2023-04-04T04:34:42.080Z,50.64
2023-04-04T04:36:44.610Z,51.41
2023-04-04T04:38:47.166Z,51.17
2023-04-04T04:40:49.722Z,50.60
2023-04-04T04:42:53.277Z,51.05
2023-04-04T04:44:57.459Z,51.08
2023-04-04T04:47:00.157Z,50.88
2023-04-04T04:49:02.826Z,50.80
2023-04-04T04:51:05.818Z,51.32
2023-04-04T04:53:08.515Z,51.03
2023-04-04T04:55:11.913Z,51.77
2023-04-04T04:57:14.493Z,51.37
2023-04-04T04:59:17.087Z,51.63
2023-04-04T05:01:21.327Z,51.83
2023-04-04T05:03:23.987Z,51.81
2023-04-04T05:05:26.544Z,51.53
2023-04-04T05:07:29.083Z,51.80
2023-04-04T05:09:31.612Z,51.92
2023-04-04T05:11:34.174Z,51.80
2023-04-04T05:13:37.370Z,51.83
2023-04-04T05:15:39.965Z,52.27
2023-04-04T05:17:43.870Z,51.88
2023-04-04T05:19:46.602Z,52.28
2023-04-04T05:21:49.221Z,52.29
2023-04-04T05:23:51.816Z,51.94
2023-04-04T05:25:54.404Z,52.18
2023-04-04T05:27:58.514Z,52.26
2023-04-04T05:30:01.397Z,52.43
2023-04-04T05:32:04.043Z,52.60
2023-04-04T05:34:08.919Z,52.78
2023-04-04T05:36:12.956Z,53.12
2023-04-04T05:38:15.570Z,52.34
2023-04-04T05:40:19.251Z,52.25
2023-04-04T05:42:21.915Z,52.99
2023-04-04T05:44:24.488Z,52.25
2023-04-04T05:46:27.056Z,52.40
2023-04-04T05:48:29.612Z,52.83
2023-04-04T05:50:33.534Z,52.64
2023-04-04T05:52:36.153Z,52.98
2023-04-04T05:54:38.712Z,52.58
2023-04-04T05:56:42.036Z,53.00
2023-04-04T05:58:46.324Z,53.03
2023-04-04T06:00:49.001Z,52.37
2023-04-04T06:02:53.390Z,52.95
2023-04-04T06:04:56.085Z,52.76
2023-04-04T06:07:00.828Z,52.64
2023-04-04T06:09:03.390Z,52.61
2023-04-04T06:11:06.033Z,52.65
2023-04-04T06:13:08.645Z,52.33
2023-04-04T06:15:11.748Z,52.64
2023-04-04T06:17:14.364Z,52.87
2023-04-04T06:19:17.340Z,53.04
2023-04-04T06:21:19.886Z,53.33
2023-04-04T06:23:23.893Z,52.60
2023-04-04T06:25:27.257Z,53.03
2023-04-04T06:27:29.803Z,53.20
2023-04-04T06:29:32.351Z,52.89
2023-04-04T06:31:34.981Z,53.33
2023-04-04T06:33:37.536Z,53.65
2023-04-04T06:35:40.107Z,53.90
2023-04-04T06:37:42.663Z,53.17
2023-04-04T06:39:46.548Z,53.31
2023-04-04T06:41:49.075Z,53.59
2023-04-04T06:43:51.783Z,53.03
2023-04-04T06:45:54.380Z,53.39
2023-04-04T06:47:58.522Z,53.23
2023-04-04T06:50:01.098Z,52.94
2023-04-04T06:52:03.844Z,53.51
2023-04-04T06:54:06.435Z,53.08
2023-04-04T06:56:10.370Z,52.92
2023-04-04T06:58:12.916Z,53.16
2023-04-04T07:00:16.607Z,52.51
2023-04-04T07:02:19.150Z,52.85
2023-04-04T07:04:21.707Z,52.37
2023-04-04T07:06:26.617Z,52.23
2023-04-04T07:08:35.635Z,52.34
2023-04-04T07:10:40.013Z,51.81
2023-04-04T07:12:45.060Z,51.59
2023-04-04T07:14:47.587Z,51.81
2023-04-04T07:16:50.245Z,51.29
2023-04-04T07:18:52.831Z,51.85
2023-04-04T07:20:55.455Z,51.48
2023-04-04T07:22:57.994Z,51.81
2023-04-04T07:25:00.668Z,51.21
2023-04-04T07:27:03.233Z,51.28
2023-04-04T07:29:07.305Z,50.77
2023-04-04T07:31:09.867Z,51.16
2023-04-04T07:33:12.454Z,50.82
2023-04-04T07:35:15.101Z,50.93
2023-04-04T07:37:18.635Z,50.41
2023-04-04T07:39:21.658Z,50.59
2023-04-04T07:41:24.283Z,49.74
2023-04-04T07:43:27.229Z,49.67
2023-04-04T07:45:31.135Z,49.98
2023-04-04T07:47:33.706Z,49.92
2023-04-04T07:49:36.255Z,50.66
2023-04-04T07:51:39.818Z,51.09
2023-04-04T07:53:42.414Z,50.32
2023-04-04T07:55:44.974Z,50.43
2023-04-04T07:57:48.049Z,51.16
2023-04-04T07:59:50.589Z,50.95
2023-04-04T08:01:54.587Z,50.63
2023-04-04T08:03:57.306Z,50.33
2023-04-04T08:05:59.994Z,49.65
2023-04-04T08:08:05.483Z,49.07
2023-04-04T08:10:09.760Z,49.16
2023-04-04T08:12:12.512Z,48.55
2023-04-04T08:14:15.075Z,48.64
2023-04-04T08:16:17.707Z,49.59
2023-04-04T08:18:21.947Z,49.56
2023-04-04T08:20:24.524Z,48.55
2023-04-04T08:22:27.076Z,48.54
2023-04-04T08:24:29.625Z,48.26
2023-04-04T08:26:32.235Z,46.01
2023-04-04T08:28:34.838Z,45.94
2023-04-04T08:30:37.667Z,45.83
2023-04-04T08:32:40.899Z,45.41
2023-04-04T08:34:45.028Z,46.18
2023-04-04T08:36:47.682Z,47.12
2023-04-04T08:38:50.207Z,45.53
2023-04-04T08:40:53.416Z,46.38
2023-04-04T08:42:57.687Z,46.77
2023-04-04T08:45:03.870Z,45.25
2023-04-04T08:47:09.052Z,46.02
2023-04-04T08:49:13.477Z,45.20
2023-04-04T08:51:18.631Z,45.18
2023-04-04T08:53:21.295Z,45.73
2023-04-04T08:55:24.532Z,45.38
2023-04-04T08:57:27.368Z,45.26
2023-04-04T08:59:30.069Z,44.53
2023-04-04T09:01:33.252Z,44.48
2023-04-04T09:03:37.253Z,45.12
2023-04-04T09:05:40.143Z,45.00
2023-04-04T09:07:44.970Z,45.10
2023-04-04T09:09:48.787Z,43.62
2023-04-04T09:11:52.760Z,44.26
2023-04-04T09:13:57.582Z,44.64
2023-04-04T09:16:01.999Z,44.47
2023-04-04T09:18:04.805Z,44.42
2023-04-04T09:20:41.969Z,44.52
2023-04-04T09:22:48.155Z,44.70
2023-04-04T09:24:51.984Z,43.66
2023-04-04T09:26:54.964Z,44.66
2023-04-04T09:28:57.566Z,44.91
2023-04-04T09:31:01.924Z,43.90
2023-04-04T09:33:06.823Z,43.89
2023-04-04T09:35:10.758Z,44.25
2023-04-04T09:37:17.785Z,42.31
2023-04-04T09:39:23.176Z,43.07
2023-04-04T09:41:27.340Z,42.74
2023-04-04T09:43:32.702Z,43.18
2023-04-04T09:45:39.804Z,43.12
2023-04-04T09:47:42.890Z,43.03
2023-04-04T09:49:45.846Z,42.19
2023-04-04T09:51:50.660Z,41.48
2023-04-04T09:53:53.198Z,42.01
2023-04-04T09:55:58.656Z,42.43
2023-04-04T09:58:05.832Z,41.37
2023-04-04T10:00:09.625Z,42.31
2023-04-04T10:02:12.520Z,41.99
2023-04-04T10:04:16.944Z,42.58
2023-04-04T10:06:19.547Z,41.84
2023-04-04T10:08:23.516Z,41.80
2023-04-04T10:10:28.502Z,41.31
2023-04-04T10:12:33.226Z,41.80
2023-04-04T10:14:36.464Z,42.03
2023-04-04T10:16:39.171Z,42.88
2023-04-04T10:18:41.803Z,41.58
2023-04-04T10:20:44.682Z,41.44
2023-04-04T10:22:48.207Z,42.26
2023-04-04T10:24:51.049Z,41.60
2023-04-04T10:26:55.330Z,42.19
2023-04-04T10:28:59.301Z,42.55
2023-04-04T10:31:07.382Z,42.89
2023-04-04T10:33:12.750Z,43.10
2023-04-04T10:35:15.552Z,43.13
2023-04-04T10:37:25.105Z,42.57
2023-04-04T10:39:30.868Z,41.57
2023-04-04T10:41:33.921Z,42.38
2023-04-04T10:43:41.518Z,41.83
2023-04-04T10:45:46.240Z,41.74
2023-04-04T10:47:49.377Z,41.67
2023-04-04T10:49:52.641Z,41.20
2023-04-04T10:51:57.505Z,41.14
2023-04-04T10:54:00.741Z,41.51
2023-04-04T10:56:04.071Z,41.36
2023-04-04T10:58:08.868Z,40.68
2023-04-04T11:00:14.438Z,41.15
2023-04-04T11:02:18.854Z,41.46
2023-04-04T11:04:23.428Z,42.14
2023-04-04T11:07:05.072Z,42.46
2023-04-04T11:09:08.113Z,42.48
2023-04-04T11:11:21.908Z,42.57
2023-04-04T11:13:29.084Z,40.97
2023-04-04T11:15:47.624Z,40.79
2023-04-04T11:17:58.402Z,40.85
2023-04-04T11:20:01.481Z,40.57
2023-04-04T11:22:04.117Z,41.37
2023-04-04T11:24:18.942Z,41.25
2023-04-04T11:26:38.649Z,41.84
2023-04-04T11:28:46.390Z,41.93
2023-04-04T11:30:50.211Z,41.83
2023-04-04T11:33:03.957Z,41.46
2023-04-04T11:35:13.395Z,39.37
2023-04-04T11:37:17.831Z,40.84
2023-04-04T11:39:27.314Z,41.30
2023-04-04T11:41:44.928Z,41.96
2023-04-04T11:43:51.251Z,41.83
2023-04-04T11:45:55.418Z,40.92
2023-04-04T11:47:59.473Z,40.69
2023-04-04T11:50:03.384Z,40.80
2023-04-04T11:52:10.060Z,41.33
2023-04-04T11:54:16.043Z,41.03
2023-04-04T11:56:20.742Z,40.43
2023-04-04T11:58:23.323Z,40.87
2023-04-04T12:00:30.728Z,40.97
2023-04-04T12:02:34.910Z,41.15
2023-04-04T12:04:39.850Z,40.95
2023-04-04T12:06:44.097Z,40.34
2023-04-04T12:08:48.246Z,39.48
2023-04-04T12:10:52.914Z,39.78
2023-04-04T12:12:56.764Z,39.82
2023-04-04T12:15:06.640Z,39.82
2023-04-04T12:17:14.344Z,39.04
2023-04-04T12:19:18.471Z,37.07
2023-04-04T12:21:21.395Z,37.13
2023-04-04T12:23:24.243Z,37.94
2023-04-04T12:25:33.752Z,38.92
2023-04-04T12:27:37.769Z,39.20
2023-04-04T12:29:40.574Z,39.31
2023-04-04T12:31:45.763Z,39.73
2023-04-04T12:33:48.488Z,39.91
2023-04-04T12:35:54.785Z,39.94
2023-04-04T12:37:59.519Z,38.67
2023-04-04T12:40:03.140Z,38.53
2023-04-04T12:42:07.555Z,38.57
2023-04-04T12:44:10.152Z,38.13
2023-04-04T12:46:12.691Z,37.00
2023-04-04T12:48:17.932Z,36.86
2023-04-04T12:50:23.104Z,36.87
2023-04-04T12:52:31.988Z,35.03
2023-04-04T12:54:38.678Z,35.74
2023-04-04T12:56:41.742Z,36.24
2023-04-04T12:58:47.619Z,35.92
2023-04-04T13:00:51.927Z,35.53
2023-04-04T13:02:54.682Z,35.47
2023-04-04T13:05:00.219Z,35.25
2023-04-04T13:07:03.210Z,34.92
2023-04-04T13:09:07.633Z,33.01
2023-04-04T13:11:10.174Z,33.01
2023-04-04T13:13:32.754Z,32.81
2023-04-04T13:16:00.911Z,33.10
2023-04-04T13:18:16.044Z,32.27
2023-04-04T13:20:20.863Z,32.49
2023-04-04T13:22:23.704Z,32.28
2023-04-04T13:24:26.251Z,31.36
2023-04-04T13:26:28.976Z,30.78
2023-04-04T13:28:31.941Z,31.15
2023-04-04T13:30:35.017Z,31.32
2023-04-04T13:32:38.989Z,30.56
2023-04-04T13:34:41.578Z,30.85
2023-04-04T13:36:44.313Z,30.22
2023-04-04T13:38:46.941Z,30.02
2023-04-04T13:40:49.508Z,30.13
2023-04-04T13:42:52.074Z,30.54
2023-04-04T13:44:54.659Z,29.84
2023-04-04T13:46:57.253Z,29.05
2023-04-04T13:49:01.577Z,28.80
2023-04-04T13:51:04.322Z,28.59
2023-04-04T13:53:06.922Z,28.53
2023-04-04T13:55:10.505Z,28.52
2023-04-04T13:57:13.072Z,27.99
2023-04-04T13:59:16.349Z,27.58
2023-04-04T14:01:18.963Z,27.83
2023-04-04T14:03:22.188Z,27.61
2023-04-04T14:05:26.203Z,28.06
2023-04-04T14:07:28.836Z,27.13
2023-04-04T14:09:31.374Z,26.80
2023-04-04T14:11:35.215Z,27.62
2023-04-04T14:13:37.879Z,27.47
2023-04-04T14:15:41.554Z,27.32
2023-04-04T14:17:44.353Z,27.80
2023-04-04T14:19:46.871Z,27.26
2023-04-04T14:21:51.057Z,27.00
2023-04-04T14:23:53.619Z,27.14
2023-04-04T14:25:56.171Z,27.66
2023-04-04T14:27:58.711Z,27.47
2023-04-04T14:30:01.306Z,28.19
2023-04-04T14:32:04.017Z,27.85
2023-04-04T14:34:06.738Z,27.70
2023-04-04T14:36:09.379Z,27.90
2023-04-04T14:38:13.257Z,27.12
2023-04-04T14:40:15.906Z,26.65
2023-04-04T14:42:18.441Z,27.55
2023-04-04T14:44:21.763Z,27.63
2023-04-04T14:46:24.992Z,28.08
2023-04-04T14:48:27.655Z,28.10
2023-04-04T14:50:30.269Z,27.99
2023-04-04T14:52:32.816Z,28.06
2023-04-04T14:54:39.012Z,28.54
2023-04-04T14:56:42.668Z,28.20
2023-04-04T14:58:45.262Z,27.80
2023-04-04T15:00:48.166Z,27.42
2023-04-04T15:02:51.533Z,27.91
2023-04-04T15:04:54.099Z,28.21
2023-04-04T15:07:00.702Z,28.02
2023-04-04T15:09:06.029Z,27.69
2023-04-04T15:11:10.114Z,27.68
2023-04-04T15:13:12.862Z,27.79
2023-04-04T15:15:16.138Z,27.71
2023-04-04T15:17:18.696Z,28.25
2023-04-04T15:19:21.445Z,27.79
2023-04-04T15:21:24.007Z,27.56
2023-04-04T15:23:26.594Z,28.12
2023-04-04T15:25:29.801Z,28.34
2023-04-04T15:27:33.696Z,28.27
2023-04-04T15:29:36.334Z,27.55
2023-04-04T15:31:38.991Z,28.51
2023-04-04T15:33:41.666Z,28.34
2023-04-04T15:35:44.228Z,28.29
2023-04-04T15:37:48.972Z,28.52
2023-04-04T15:39:53.859Z,28.71
2023-04-04T15:41:56.758Z,28.34
2023-04-04T15:44:00.627Z,28.27
2023-04-04T15:46:03.612Z,28.26
2023-04-04T15:48:06.516Z,28.46
2023-04-04T15:50:10.989Z,28.28
2023-04-04T15:52:13.642Z,28.59
2023-04-04T15:54:16.193Z,28.85
2023-04-04T15:56:18.757Z,28.76
2023-04-04T15:58:21.382Z,28.71
2023-04-04T16:00:28.863Z,28.95
2023-04-04T16:02:31.836Z,29.08
2023-04-04T16:04:34.868Z,29.06
2023-04-04T16:06:37.820Z,29.35
2023-04-04T16:08:43.442Z,29.35
2023-04-04T16:10:46.189Z,29.74
2023-04-04T16:12:48.727Z,29.50
2023-04-04T16:14:51.286Z,29.21
2023-04-04T16:16:55.619Z,29.53
2023-04-04T16:18:58.168Z,29.93
2023-04-04T16:21:04.105Z,29.89
2023-04-04T16:23:06.657Z,30.01
2023-04-04T16:25:09.829Z,30.19
2023-04-04T16:27:12.883Z,30.09
2023-04-04T16:29:15.708Z,30.47
2023-04-04T16:31:18.349Z,30.63
2023-04-04T16:33:23.929Z,30.28
2023-04-04T16:35:26.983Z,30.38
2023-04-04T16:37:29.603Z,30.17
2023-04-04T16:39:32.139Z,30.22
2023-04-04T16:41:35.078Z,30.65
2023-04-04T16:43:37.589Z,30.55
2023-04-04T16:45:40.180Z,30.57
2023-04-04T16:47:42.769Z,30.09
2023-04-04T16:49:47.942Z,30.67
2023-04-04T16:51:50.543Z,30.74
2023-04-04T16:53:53.152Z,30.48
2023-04-04T16:55:55.775Z,30.69
2023-04-04T16:57:59.326Z,30.94
2023-04-04T17:00:01.900Z,31.17
2023-04-04T17:02:05.322Z,30.92
2023-04-04T17:04:08.282Z,31.17
2023-04-04T17:06:12.468Z,31.22
2023-04-04T17:08:15.015Z,31.64
2023-04-04T17:10:17.563Z,31.44
2023-04-04T17:12:20.290Z,31.88
2023-04-04T17:14:22.894Z,31.96
2023-04-04T17:16:26.270Z,32.33
2023-04-04T17:18:28.921Z,32.17
2023-04-04T17:20:33.654Z,32.53
2023-04-04T17:22:38.402Z,32.67
2023-04-04T17:24:41.368Z,32.88
2023-04-04T17:26:44.124Z,32.91
2023-04-04T17:28:47.563Z,33.26
2023-04-04T17:30:50.608Z,33.17
2023-04-04T17:32:54.394Z,33.47
2023-04-04T17:34:57.071Z,33.97
2023-04-04T17:36:59.763Z,33.59
2023-04-04T17:39:03.896Z,33.64
2023-04-04T17:41:07.678Z,33.68
2023-04-04T17:43:10.381Z,33.90
2023-04-04T17:45:13.023Z,33.53
2023-04-04T17:47:16.067Z,33.59
2023-04-04T17:49:20.696Z,34.01
2023-04-04T17:51:23.390Z,33.83
2023-04-04T17:53:25.932Z,33.87
2023-04-04T17:55:30.431Z,34.23
2023-04-04T17:57:33.002Z,33.91
2023-04-04T17:59:35.615Z,34.08
2023-04-04T18:01:38.828Z,34.05
2023-04-04T18:03:41.500Z,34.25
2023-04-04T18:05:44.170Z,34.06
2023-04-04T18:07:46.760Z,34.45
2023-04-04T18:09:49.300Z,34.54
2023-04-04T18:11:53.254Z,34.53
2023-04-04T18:13:55.832Z,34.96
2023-04-04T18:15:59.285Z,35.01
2023-04-04T18:18:02.106Z,34.80
2023-04-04T18:20:05.556Z,34.75
2023-04-04T18:22:08.380Z,35.20
2023-04-04T18:24:11.829Z,35.09
2023-04-04T18:26:14.527Z,35.43
2023-04-04T18:28:18.867Z,35.27
2023-04-04T18:30:22.257Z,35.24
2023-04-04T18:32:26.301Z,35.61
2023-04-04T18:34:28.962Z,35.52
2023-04-04T18:36:31.533Z,35.67
2023-04-04T18:38:34.104Z,35.96
2023-04-04T18:40:36.642Z,36.28
2023-04-04T18:42:39.319Z,36.53
2023-04-04T18:44:43.257Z,36.97
2023-04-04T18:46:45.856Z,36.97
2023-04-04T18:48:48.423Z,37.52
2023-04-04T18:50:51.082Z,37.64
2023-04-04T18:52:54.230Z,37.47
2023-04-04T18:54:56.800Z,37.53
2023-04-04T18:57:00.577Z,37.68
2023-04-04T18:59:03.140Z,37.42
2023-04-04T19:01:07.522Z,37.32
2023-04-04T19:03:11.793Z,37.41
2023-04-04T19:05:22.720Z,37.56
2023-04-04T19:07:27.755Z,37.57
2023-04-04T19:09:32.131Z,37.46
2023-04-04T19:11:34.676Z,37.55
2023-04-04T19:13:37.411Z,37.66
2023-04-04T19:15:40.103Z,37.74
2023-04-04T19:17:44.226Z,38.31
2023-04-04T19:19:47.735Z,38.22
2023-04-04T19:21:50.568Z,38.67
2023-04-04T19:23:53.123Z,38.70
2023-04-04T19:25:56.749Z,38.62
2023-04-04T19:28:02.346Z,39.00
2023-04-04T19:30:33.917Z,39.05
2023-04-04T19:32:36.855Z,39.70
2023-04-04T19:34:41.693Z,40.07
2023-04-04T19:36:44.286Z,40.45
2023-04-04T19:38:48.571Z,40.61
2023-04-04T19:40:52.683Z,41.00
2023-04-04T19:42:55.231Z,41.07
2023-04-04T19:44:57.770Z,41.11
2023-04-04T19:47:01.059Z,40.99
2023-04-04T19:49:10.216Z,41.50
2023-04-04T19:51:38.459Z,41.77
2023-04-04T19:53:41.150Z,42.19
2023-04-04T19:55:43.752Z,42.62
2023-04-04T19:57:47.193Z,42.14
2023-04-04T19:59:58.968Z,42.09
2023-04-04T20:02:01.409Z,42.06
2023-04-04T20:04:08.286Z,42.40
2023-04-04T20:06:13.010Z,42.82
2023-04-04T20:08:19.720Z,42.94
2023-04-04T20:10:38.208Z,43.03
2023-04-04T20:12:40.770Z,43.28
2023-04-04T20:14:43.311Z,43.48
2023-04-04T20:16:49.804Z,43.65
2023-04-04T20:18:53.292Z,43.87
2023-04-04T20:21:01.583Z,43.69
2023-04-04T20:23:06.919Z,43.85
2023-04-04T20:25:32.841Z,43.89
2023-04-04T20:27:36.455Z,44.17
2023-04-04T20:29:40.263Z,44.15
2023-04-04T20:31:44.967Z,42.86
2023-04-04T20:33:47.537Z,43.37
2023-04-04T20:35:50.294Z,43.61
2023-04-04T20:37:52.853Z,43.84
2023-04-04T20:39:57.035Z,44.14
2023-04-04T20:42:01.083Z,44.16
2023-04-04T20:44:03.679Z,44.38
2023-04-04T20:46:06.326Z,44.54
2023-04-04T20:48:10.246Z,44.49
2023-04-04T20:50:36.504Z,44.74
2023-04-04T20:52:39.037Z,44.85
2023-04-04T20:54:41.594Z,44.80
2023-04-04T20:56:52.949Z,44.83
2023-04-04T20:58:56.869Z,44.93
2023-04-04T21:01:00.908Z,45.65
2023-04-04T21:03:12.028Z,46.17
2023-04-04T21:05:27.153Z,46.81
2023-04-04T21:07:39.889Z,46.68
2023-04-04T21:09:42.426Z,46.63
2023-04-04T21:11:45.562Z,46.84
2023-04-04T21:13:48.269Z,46.63
2023-04-04T21:15:52.454Z,46.98
2023-04-04T21:17:55.912Z,47.26
2023-04-04T21:19:58.612Z,47.12
2023-04-04T21:22:01.150Z,47.00
2023-04-04T21:24:06.804Z,47.29
2023-04-04T21:26:11.692Z,47.31
2023-04-04T21:28:14.249Z,47.64
2023-04-04T21:30:42.313Z,47.47
2023-04-04T21:32:46.477Z,47.69
2023-04-04T21:34:49.042Z,47.82
2023-04-04T21:36:53.380Z,47.91
2023-04-04T21:38:57.890Z,47.19
2023-04-04T21:41:01.104Z,47.27
2023-04-04T21:43:03.686Z,47.27
2023-04-04T21:45:07.441Z,47.20
2023-04-04T21:47:09.963Z,47.55
2023-04-04T21:49:13.927Z,47.68
2023-04-04T21:51:16.490Z,47.93
2023-04-04T21:53:19.039Z,47.49
2023-04-04T21:55:21.879Z,47.41
2023-04-04T21:57:24.441Z,47.56
2023-04-04T21:59:27.028Z,47.93
2023-04-04T22:01:30.441Z,48.04
2023-04-04T22:03:33.125Z,48.39
2023-04-04T22:05:39.414Z,48.47
2023-04-04T22:07:42.337Z,48.73
2023-04-04T22:09:46.413Z,48.46
2023-04-04T22:11:48.970Z,48.40
2023-04-04T22:13:51.764Z,48.87
2023-04-04T22:15:58.851Z,48.91
2023-04-04T22:18:04.337Z,48.94
2023-04-04T22:20:11.076Z,48.88
2023-04-04T22:22:15.378Z,48.86
2023-04-04T22:24:18.906Z,48.61
2023-04-04T22:26:31.882Z,48.93
2023-04-04T22:28:35.846Z,48.47
2023-04-04T22:30:41.970Z,48.88
2023-04-04T22:32:45.628Z,48.99
2023-04-04T22:34:48.850Z,49.16
2023-04-04T22:36:54.652Z,49.71
2023-04-04T22:38:58.689Z,49.20
2023-04-04T22:41:01.372Z,49.46
2023-04-04T22:43:04.215Z,49.61
2023-04-04T22:45:07.788Z,49.74
2023-04-04T22:47:11.940Z,49.17
2023-04-04T22:49:16.198Z,49.48
2023-04-04T22:51:18.796Z,49.52
2023-04-04T22:53:24.616Z,49.40
2023-04-04T22:55:29.138Z,49.96
2023-04-04T22:57:31.680Z,49.96
2023-04-04T22:59:34.377Z,49.68
2023-04-04T23:01:37.022Z,50.18
2023-04-04T23:03:39.612Z,49.96
2023-04-04T23:05:42.330Z,49.89
2023-04-04T23:07:46.270Z,49.86
2023-04-04T23:09:48.829Z,50.03
2023-04-04T23:11:52.722Z,49.41
2023-04-04T23:13:56.904Z,49.98
2023-04-04T23:15:59.832Z,49.47
2023-04-04T23:18:02.555Z,49.70
2023-04-04T23:20:10.150Z,50.12
2023-04-04T23:22:12.744Z,50.03
2023-04-04T23:24:15.399Z,50.17
2023-04-04T23:26:17.950Z,50.18
2023-04-04T23:28:21.909Z,50.07
2023-04-04T23:30:25.519Z,50.40
2023-04-04T23:32:28.510Z,50.69
2023-04-04T23:34:31.217Z,51.27
2023-04-04T23:36:33.828Z,50.63
2023-04-04T23:38:36.721Z,51.01
2023-04-04T23:40:39.393Z,51.20
2023-04-04T23:42:42.108Z,50.81
2023-04-04T23:44:46.241Z,50.54
2023-04-04T23:46:49.845Z,50.51
2023-04-04T23:48:52.542Z,50.48
2023-04-04T23:50:56.625Z,50.57
2023-04-04T23:52:59.167Z,50.43
2023-04-04T23:55:01.784Z,50.41
2023-04-04T23:57:04.344Z,50.82
2023-04-04T23:59:07.381Z,50.76
